createdAt,value
2023-05-08T12:01:37.926Z,47.97
2023-05-08T12:02:36.531Z,48.34
2023-05-08T12:03:36.560Z,48.52
2023-05-08T12:04:36.486Z,49.30
2023-05-08T12:05:36.376Z,49.67
2023-05-08T12:06:36.361Z,48.85
2023-05-08T12:07:36.372Z,48.22
2023-05-08T12:08:36.363Z,47.99
2023-05-08T12:09:36.333Z,47.82
2023-05-08T12:10:36.328Z,47.83
2023-05-08T12:11:36.404Z,48.31
2023-05-08T12:12:36.295Z,48.39
2023-05-08T12:13:36.373Z,49.43
2023-05-08T12:14:36.300Z,49.07
2023-05-08T12:15:36.273Z,48.27
2023-05-08T12:16:36.296Z,48.05
2023-05-08T12:17:36.297Z,47.64
2023-05-08T12:18:37.413Z,47.74
2023-05-08T12:19:36.226Z,47.70
2023-05-08T12:20:36.217Z,48.10
2023-05-08T12:21:36.237Z,48.34
2023-05-08T12:22:36.212Z,48.17
2023-05-08T12:23:36.208Z,48.32
2023-05-08T12:24:36.178Z,47.65
2023-05-08T12:25:36.162Z,47.55
2023-05-08T12:26:36.178Z,47.56
2023-05-08T12:27:36.149Z,46.75
2023-05-08T12:28:36.159Z,46.79
2023-05-08T12:29:36.129Z,46.50
2023-05-08T12:30:36.106Z,46.03
2023-05-08T12:31:36.194Z,46.65
2023-05-08T12:32:36.131Z,46.36
2023-05-08T12:33:36.088Z,46.64
2023-05-08T12:34:36.068Z,46.46
2023-05-08T12:35:36.122Z,46.22
2023-05-08T12:36:36.076Z,46.34
2023-05-08T12:37:36.037Z,45.85
2023-05-08T12:38:36.062Z,46.03
2023-05-08T12:39:36.009Z,45.96
2023-05-08T12:40:36.054Z,46.17
2023-05-08T12:41:36.009Z,45.54
2023-05-08T12:42:35.988Z,45.15
2023-05-08T12:43:35.993Z,44.65
2023-05-08T12:44:35.988Z,44.17
2023-05-08T12:45:35.966Z,43.83
2023-05-08T12:46:35.956Z,43.65
2023-05-08T12:47:36.006Z,43.49
2023-05-08T12:48:35.931Z,43.49
2023-05-08T12:49:35.909Z,44.26
2023-05-08T12:50:35.908Z,44.76
2023-05-08T12:51:35.897Z,44.53
2023-05-08T12:52:35.914Z,44.59
2023-05-08T12:53:35.892Z,44.22
2023-05-08T12:54:35.849Z,43.68
2023-05-08T12:55:35.845Z,43.13
2023-05-08T12:56:35.852Z,42.58
2023-05-08T12:57:35.836Z,42.52
2023-05-08T12:58:35.812Z,42.64
2023-05-08T12:59:35.822Z,42.89
2023-05-08T13:00:35.805Z,43.22
2023-05-08T13:01:35.845Z,42.82
2023-05-08T13:02:39.483Z,42.39
2023-05-08T13:03:36.815Z,42.10
2023-05-08T13:04:35.797Z,42.22
2023-05-08T13:05:35.744Z,42.02
2023-05-08T13:06:35.814Z,41.70
2023-05-08T13:07:35.710Z,41.74
2023-05-08T13:08:35.700Z,41.33
2023-05-08T13:09:35.700Z,41.71
2023-05-08T13:10:35.686Z,41.92
2023-05-08T13:11:35.710Z,42.15
2023-05-08T13:12:35.660Z,41.52
2023-05-08T13:13:35.655Z,41.11
2023-05-08T13:14:35.644Z,41.08
2023-05-08T13:15:35.632Z,41.12
2023-05-08T13:16:36.154Z,41.04
2023-05-08T13:17:35.627Z,41.85
2023-05-08T13:18:35.601Z,41.66
2023-05-08T13:19:35.598Z,42.58
2023-05-08T13:20:35.591Z,44.86
2023-05-08T13:21:35.609Z,42.66
2023-05-08T13:22:35.564Z,42.45
2023-05-08T13:23:35.566Z,42.43
2023-05-08T13:24:35.523Z,42.13
2023-05-08T13:25:35.536Z,42.96
2023-05-08T13:26:35.506Z,45.12
2023-05-08T13:27:35.536Z,41.99
2023-05-08T13:28:35.481Z,41.63
2023-05-08T13:29:35.472Z,41.73
2023-05-08T13:30:35.470Z,43.15
2023-05-08T13:31:35.559Z,46.59
2023-05-08T13:32:35.475Z,45.36
2023-05-08T13:33:35.430Z,43.75
2023-05-08T13:34:39.363Z,43.09
2023-05-08T13:35:36.432Z,43.01
2023-05-08T13:36:35.434Z,42.84
2023-05-08T13:37:35.392Z,42.83
2023-05-08T13:38:35.390Z,44.20
2023-05-08T13:39:35.384Z,42.72
2023-05-08T13:40:35.365Z,41.08
2023-05-08T13:41:35.372Z,40.38
2023-05-08T13:42:35.343Z,39.61
2023-05-08T13:43:35.355Z,39.47
2023-05-08T13:44:35.321Z,38.47
2023-05-08T13:45:35.338Z,39.03
2023-05-08T13:46:35.336Z,39.33
2023-05-08T13:47:35.312Z,39.94
2023-05-08T13:48:35.269Z,40.13
2023-05-08T13:49:35.276Z,40.55
2023-05-08T13:50:35.267Z,40.81
2023-05-08T13:51:35.247Z,40.75
2023-05-08T13:52:35.252Z,39.69
2023-05-08T13:53:35.263Z,39.21
2023-05-08T13:54:35.213Z,38.94
2023-05-08T13:55:35.200Z,38.89
2023-05-08T13:56:35.218Z,38.32
2023-05-08T13:57:35.210Z,38.63
2023-05-08T13:58:35.201Z,38.00
2023-05-08T13:59:35.153Z,37.85
2023-05-08T14:00:35.142Z,37.75
2023-05-08T14:01:35.159Z,37.95
2023-05-08T14:02:35.209Z,38.26
2023-05-08T14:03:35.181Z,38.06
2023-05-08T14:04:35.121Z,38.35
2023-05-08T14:05:35.104Z,38.50
2023-05-08T14:06:35.089Z,38.64
2023-05-08T14:07:35.089Z,39.39
2023-05-08T14:08:35.287Z,39.03
2023-05-08T14:09:36.049Z,38.53
2023-05-08T14:10:35.041Z,38.85
2023-05-08T14:11:35.029Z,38.16
2023-05-08T14:12:35.028Z,37.98
2023-05-08T14:13:35.085Z,37.47
2023-05-08T14:14:35.006Z,37.84
2023-05-08T14:15:37.367Z,37.95
2023-05-08T14:16:35.033Z,37.87
2023-05-08T14:17:35.054Z,38.10
2023-05-08T14:18:34.963Z,38.80
2023-05-08T14:19:34.937Z,39.94
2023-05-08T14:20:34.931Z,40.11
2023-05-08T14:21:34.966Z,40.18
2023-05-08T14:22:34.905Z,39.20
2023-05-08T14:23:34.930Z,39.83
2023-05-08T14:24:34.892Z,38.98
2023-05-08T14:25:34.893Z,38.88
2023-05-08T14:26:34.878Z,39.38
2023-05-08T14:27:34.861Z,39.35
2023-05-08T14:28:34.868Z,38.83
2023-05-08T14:29:34.891Z,38.70
2023-05-08T14:30:34.830Z,38.47
2023-05-08T14:31:34.870Z,38.32
2023-05-08T14:32:34.888Z,38.12
2023-05-08T14:33:34.846Z,38.16
2023-05-08T14:34:34.783Z,37.93
2023-05-08T14:35:34.791Z,39.49
2023-05-08T14:36:34.764Z,40.10
2023-05-08T14:37:34.820Z,39.84
2023-05-08T14:38:34.754Z,38.62
2023-05-08T14:39:34.734Z,37.98
2023-05-08T14:40:34.700Z,37.63
2023-05-08T14:41:34.739Z,37.73
2023-05-08T14:42:34.694Z,37.92
2023-05-08T14:43:34.713Z,39.08
2023-05-08T14:44:34.744Z,38.73
2023-05-08T14:45:34.670Z,38.92
2023-05-08T14:46:34.711Z,38.56
2023-05-08T14:47:34.661Z,38.53
2023-05-08T14:48:34.645Z,39.20
2023-05-08T14:49:38.602Z,38.85
2023-05-08T14:50:34.630Z,38.25
2023-05-08T14:51:34.597Z,40.02
2023-05-08T14:52:34.656Z,38.64
2023-05-08T14:53:34.703Z,38.82
2023-05-08T14:54:34.812Z,38.22
2023-05-08T14:55:34.868Z,37.98
2023-05-08T14:56:46.345Z,37.60
2023-05-08T14:57:35.568Z,37.27
2023-05-08T14:58:34.584Z,37.60
2023-05-08T14:59:34.517Z,37.93
2023-05-08T15:00:34.570Z,38.31
2023-05-08T15:01:34.553Z,38.78
2023-05-08T15:02:34.612Z,38.43
2023-05-08T15:03:34.609Z,39.30
2023-05-08T15:04:34.492Z,38.26
2023-05-08T15:05:34.453Z,39.31
2023-05-08T15:06:34.437Z,38.37
2023-05-08T15:07:34.447Z,38.28
2023-05-08T15:08:34.468Z,38.12
2023-05-08T15:09:34.405Z,38.09
2023-05-08T15:10:34.428Z,38.15
2023-05-08T15:11:34.401Z,38.85
2023-05-08T15:12:34.380Z,38.50
2023-05-08T15:13:34.451Z,37.67
2023-05-08T15:14:34.378Z,37.53
2023-05-08T15:15:34.350Z,38.96
2023-05-08T15:16:34.378Z,39.38
2023-05-08T15:17:34.344Z,38.89
2023-05-08T15:18:34.334Z,40.09
2023-05-08T15:19:34.349Z,40.01
2023-05-08T15:20:35.295Z,39.61
2023-05-08T15:21:35.197Z,41.00
2023-05-08T15:22:35.438Z,39.75
2023-05-08T15:23:35.532Z,39.41
2023-05-08T15:24:35.446Z,40.10
2023-05-08T15:25:35.288Z,39.59
2023-05-08T15:26:34.350Z,39.48
2023-05-08T15:27:35.561Z,37.98
2023-05-08T15:28:34.214Z,38.36
2023-05-08T15:29:34.215Z,39.99
2023-05-08T15:30:34.198Z,38.02
2023-05-08T15:31:34.209Z,37.94
2023-05-08T15:32:34.177Z,38.13
2023-05-08T15:33:34.171Z,38.98
2023-05-08T15:34:34.164Z,37.71
2023-05-08T15:35:34.125Z,37.49
2023-05-08T15:36:34.133Z,37.66
2023-05-08T15:37:34.115Z,37.43
2023-05-08T15:38:34.131Z,38.18
2023-05-08T15:39:34.099Z,39.02
2023-05-08T15:40:34.111Z,39.44
2023-05-08T15:41:34.067Z,38.72
2023-05-08T15:42:34.053Z,39.12
2023-05-08T15:43:34.040Z,38.90
2023-05-08T15:44:53.220Z,38.44
2023-05-08T15:45:35.075Z,38.26
2023-05-08T15:46:34.025Z,39.11
2023-05-08T15:47:34.095Z,39.50
2023-05-08T15:48:34.005Z,40.18
2023-05-08T15:49:34.019Z,39.35
2023-05-08T15:50:33.983Z,39.57
2023-05-08T15:51:33.976Z,40.07
2023-05-08T15:52:33.952Z,39.55
2023-05-08T15:53:33.937Z,40.35
2023-05-08T15:54:33.946Z,40.85
2023-05-08T15:55:33.939Z,41.16
2023-05-08T15:56:33.911Z,40.37
2023-05-08T15:57:33.916Z,38.78
2023-05-08T15:58:33.877Z,39.55
2023-05-08T15:59:33.904Z,40.37
2023-05-08T16:00:44.166Z,40.98
2023-05-08T16:01:34.907Z,40.91
2023-05-08T16:02:33.900Z,41.65
2023-05-08T16:03:33.988Z,39.21
2023-05-08T16:04:33.836Z,39.03
2023-05-08T16:05:33.807Z,37.99
2023-05-08T16:06:33.790Z,37.40
2023-05-08T16:07:33.792Z,37.61
2023-05-08T16:08:33.780Z,37.41
2023-05-08T16:09:33.785Z,37.44
2023-05-08T16:10:33.763Z,37.45
2023-05-08T16:11:33.743Z,37.65
2023-05-08T16:12:33.734Z,37.42
2023-05-08T16:13:33.731Z,37.42
2023-05-08T16:14:33.725Z,36.96
2023-05-08T16:15:33.715Z,37.65
2023-05-08T16:16:33.776Z,37.66
2023-05-08T16:17:33.693Z,37.26
2023-05-08T16:18:33.679Z,36.96
2023-05-08T16:19:34.688Z,36.94
2023-05-08T16:20:35.720Z,36.26
2023-05-08T16:21:33.723Z,35.49
2023-05-08T16:22:33.701Z,35.32
2023-05-08T16:23:33.650Z,35.46
2023-05-08T16:24:33.642Z,35.35
2023-05-08T16:25:33.649Z,36.16
2023-05-08T16:26:33.585Z,36.66
2023-05-08T16:27:33.575Z,36.59
2023-05-08T16:28:33.571Z,36.82
2023-05-08T16:29:33.571Z,36.96
2023-05-08T16:30:33.584Z,38.17
2023-05-08T16:31:33.663Z,38.08
2023-05-08T16:32:33.535Z,39.95
2023-05-08T16:33:33.522Z,38.67
2023-05-08T16:34:33.521Z,37.70
2023-05-08T16:35:33.550Z,37.73
2023-05-08T16:36:33.505Z,38.59
2023-05-08T16:37:33.764Z,39.27
2023-05-08T16:38:33.455Z,38.40
2023-05-08T16:39:33.448Z,37.20
2023-05-08T16:40:33.466Z,37.33
2023-05-08T16:41:33.445Z,38.03
2023-05-08T16:42:33.408Z,37.39
2023-05-08T16:43:33.422Z,38.56
2023-05-08T16:44:33.402Z,37.67
2023-05-08T16:45:33.389Z,37.40
2023-05-08T16:46:33.415Z,37.82
2023-05-08T16:47:33.434Z,38.41
2023-05-08T16:48:33.353Z,37.55
2023-05-08T16:49:33.344Z,37.10
2023-05-08T16:50:33.343Z,36.63
2023-05-08T16:51:33.340Z,37.32
2023-05-08T16:52:33.315Z,36.50
2023-05-08T16:53:33.296Z,36.71
2023-05-08T16:54:33.290Z,35.91
2023-05-08T16:55:33.267Z,38.47
2023-05-08T16:56:33.292Z,41.69
2023-05-08T16:57:33.254Z,37.69
2023-05-08T16:58:33.263Z,38.66
2023-05-08T16:59:33.240Z,38.10
2023-05-08T17:00:33.249Z,40.10
2023-05-08T17:01:33.249Z,37.29
2023-05-08T17:02:33.336Z,36.50
2023-05-08T17:03:33.337Z,37.20
2023-05-08T17:04:33.184Z,35.63
2023-05-08T17:05:33.173Z,36.04
2023-05-08T17:06:33.185Z,35.71
2023-05-08T17:07:33.160Z,37.28
2023-05-08T17:08:33.224Z,39.17
2023-05-08T17:09:34.470Z,37.41
2023-05-08T17:10:33.122Z,38.86
2023-05-08T17:11:33.129Z,37.06
2023-05-08T17:12:33.095Z,37.10
2023-05-08T17:13:33.127Z,37.80
2023-05-08T17:14:33.087Z,36.33
2023-05-08T17:15:33.053Z,35.76
2023-05-08T17:16:33.130Z,35.89
2023-05-08T17:17:33.088Z,35.97
2023-05-08T17:18:33.028Z,35.77
2023-05-08T17:19:33.014Z,35.65
2023-05-08T17:20:33.004Z,36.11
2023-05-08T17:21:33.021Z,35.72
2023-05-08T17:22:32.980Z,35.47
2023-05-08T17:23:32.976Z,36.38
2023-05-08T17:24:32.985Z,35.90
2023-05-08T17:25:32.951Z,36.22
2023-05-08T17:26:32.970Z,36.19
2023-05-08T17:27:32.934Z,37.07
2023-05-08T17:28:32.918Z,36.33
2023-05-08T17:29:33.064Z,36.33
2023-05-08T17:30:32.894Z,36.90
2023-05-08T17:31:34.131Z,35.95
2023-05-08T17:32:32.919Z,37.36
2023-05-08T17:33:34.693Z,36.72
2023-05-08T17:34:35.023Z,36.39
2023-05-08T17:35:34.074Z,36.21
2023-05-08T17:36:32.874Z,36.79
2023-05-08T17:37:32.862Z,37.75
2023-05-08T17:38:32.809Z,36.42
2023-05-08T17:39:32.835Z,36.34
2023-05-08T17:40:32.869Z,36.47
2023-05-08T17:41:32.821Z,36.63
2023-05-08T17:42:32.801Z,36.69
2023-05-08T17:43:32.893Z,36.91
2023-05-08T17:44:32.894Z,36.92
2023-05-08T17:45:32.800Z,37.23
2023-05-08T17:46:32.730Z,36.80
2023-05-08T17:47:32.786Z,37.39
2023-05-08T17:48:32.697Z,36.31
2023-05-08T17:49:32.706Z,36.56
2023-05-08T17:50:32.720Z,36.66
2023-05-08T17:51:32.671Z,36.35
2023-05-08T17:52:32.668Z,36.70
2023-05-08T17:53:32.727Z,37.51
2023-05-08T17:54:32.646Z,37.69
2023-05-08T17:55:32.626Z,36.84
2023-05-08T17:56:32.641Z,36.87
2023-05-08T17:57:32.639Z,36.50
2023-05-08T17:58:32.598Z,36.76
2023-05-08T17:59:32.625Z,37.23
2023-05-08T18:00:32.589Z,38.34
2023-05-08T18:01:32.613Z,37.74
2023-05-08T18:02:32.669Z,38.19
2023-05-08T18:03:32.558Z,37.61
2023-05-08T18:04:32.533Z,37.83
2023-05-08T18:05:32.564Z,37.33
2023-05-08T18:06:32.534Z,37.96
2023-05-08T18:07:32.501Z,37.83
2023-05-08T18:08:32.526Z,37.82
2023-05-08T18:09:35.057Z,37.61
2023-05-08T18:10:32.480Z,37.49
2023-05-08T18:11:32.466Z,37.53
2023-05-08T18:12:32.510Z,38.62
2023-05-08T18:13:32.445Z,37.64
2023-05-08T18:14:32.435Z,37.33
2023-05-08T18:15:32.408Z,38.08
2023-05-08T18:16:32.469Z,37.43
2023-05-08T18:17:32.454Z,37.63
2023-05-08T18:18:32.375Z,37.66
2023-05-08T18:19:32.401Z,38.25
2023-05-08T18:20:32.895Z,38.65
2023-05-08T18:21:32.345Z,38.46
2023-05-08T18:22:32.393Z,38.30
2023-05-08T18:23:32.324Z,38.52
2023-05-08T18:24:32.315Z,38.70
2023-05-08T18:25:32.309Z,38.58
2023-05-08T18:26:32.366Z,38.65
2023-05-08T18:27:32.317Z,38.65
2023-05-08T18:28:32.339Z,38.27
2023-05-08T18:29:32.294Z,38.53
2023-05-08T18:30:32.266Z,38.20
2023-05-08T18:31:32.352Z,38.30
2023-05-08T18:32:32.279Z,38.85
2023-05-08T18:33:32.317Z,38.36
2023-05-08T18:34:32.253Z,38.75
2023-05-08T18:35:32.215Z,38.60
2023-05-08T18:36:32.187Z,38.82
2023-05-08T18:37:32.209Z,39.12
2023-05-08T18:38:32.218Z,39.12
2023-05-08T18:39:32.163Z,39.60
2023-05-08T18:40:32.175Z,39.29
2023-05-08T18:41:32.225Z,39.24
2023-05-08T18:42:32.138Z,38.93
2023-05-08T18:43:32.134Z,38.46
2023-05-08T18:44:32.159Z,38.57
2023-05-08T18:45:32.092Z,38.54
2023-05-08T18:46:32.148Z,38.64
2023-05-08T18:47:32.158Z,38.70
2023-05-08T18:48:32.069Z,38.69
2023-05-08T18:49:32.059Z,38.77
2023-05-08T18:50:32.068Z,38.97
2023-05-08T18:51:32.040Z,38.94
2023-05-08T18:52:32.051Z,39.11
2023-05-08T18:53:33.056Z,39.11
2023-05-08T18:54:32.084Z,39.17
2023-05-08T18:55:32.014Z,39.97
2023-05-08T18:56:31.981Z,39.29
2023-05-08T18:57:31.988Z,39.40
2023-05-08T18:58:31.971Z,39.40
2023-05-08T18:59:31.950Z,39.35
2023-05-08T19:00:32.016Z,39.51
2023-05-08T19:01:31.921Z,39.79
2023-05-08T19:02:31.997Z,39.73
2023-05-08T19:03:32.030Z,39.72
2023-05-08T19:04:31.903Z,39.71
2023-05-08T19:05:31.884Z,39.74
2023-05-08T19:06:31.895Z,39.94
2023-05-08T19:07:31.961Z,40.29
2023-05-08T19:08:31.886Z,40.28
2023-05-08T19:09:31.918Z,40.35
2023-05-08T19:10:31.825Z,40.05
2023-05-08T19:11:31.824Z,39.93
2023-05-08T19:12:31.810Z,39.83
2023-05-08T19:13:31.857Z,39.97
2023-05-08T19:14:31.786Z,39.96
2023-05-08T19:15:31.776Z,40.15
2023-05-08T19:16:31.847Z,40.62
2023-05-08T19:17:31.761Z,40.40
2023-05-08T19:18:31.745Z,40.52
2023-05-08T19:19:31.771Z,40.78
2023-05-08T19:20:31.720Z,40.53
2023-05-08T19:21:31.739Z,40.58
2023-05-08T19:22:32.837Z,40.52
2023-05-08T19:23:31.708Z,41.18
2023-05-08T19:24:31.681Z,41.30
2023-05-08T19:25:31.697Z,41.13
2023-05-08T19:26:31.654Z,41.04
2023-05-08T19:27:31.637Z,40.94
2023-05-08T19:28:31.658Z,40.95
2023-05-08T19:29:33.617Z,40.99
2023-05-08T19:30:31.613Z,40.86
2023-05-08T19:31:31.698Z,41.48
2023-05-08T19:32:31.584Z,41.27
2023-05-08T19:33:31.585Z,41.00
2023-05-08T19:34:31.631Z,41.27
2023-05-08T19:35:31.608Z,41.24
2023-05-08T19:36:31.552Z,41.04
2023-05-08T19:37:31.533Z,41.64
2023-05-08T19:38:31.538Z,41.59
2023-05-08T19:39:31.544Z,41.42
2023-05-08T19:40:31.856Z,41.48
2023-05-08T19:41:31.529Z,41.52
2023-05-08T19:42:31.497Z,41.60
2023-05-08T19:43:31.480Z,41.78
2023-05-08T19:44:31.490Z,41.67
2023-05-08T19:45:31.474Z,41.82
2023-05-08T19:46:31.467Z,42.08
2023-05-08T19:47:31.441Z,42.19
2023-05-08T19:48:31.434Z,42.27
2023-05-08T19:49:31.439Z,42.29
2023-05-08T19:50:31.394Z,42.31
2023-05-08T19:51:31.402Z,42.30
2023-05-08T19:52:31.370Z,42.46
2023-05-08T19:53:31.377Z,42.56
2023-05-08T19:54:31.388Z,42.45
2023-05-08T19:55:31.366Z,42.60
2023-05-08T19:56:31.339Z,42.83
2023-05-08T19:57:31.330Z,42.62
2023-05-08T19:58:31.329Z,42.77
2023-05-08T19:59:31.330Z,43.03
2023-05-08T20:00:31.310Z,43.20
2023-05-08T20:01:31.364Z,43.25
2023-05-08T20:02:31.320Z,43.37
2023-05-08T20:03:31.380Z,43.41
2023-05-08T20:04:32.358Z,43.45
2023-05-08T20:05:31.295Z,43.58
2023-05-08T20:06:31.221Z,43.44
2023-05-08T20:07:31.239Z,43.61
2023-05-08T20:08:31.202Z,43.54
2023-05-08T20:09:31.185Z,43.85
2023-05-08T20:10:31.246Z,43.92
2023-05-08T20:11:31.197Z,43.97
2023-05-08T20:12:31.203Z,44.14
2023-05-08T20:13:31.147Z,44.31
2023-05-08T20:14:31.171Z,44.25
2023-05-08T20:15:31.138Z,44.39
2023-05-08T20:16:31.153Z,44.40
2023-05-08T20:17:31.158Z,44.54
2023-05-08T20:18:31.234Z,44.71
2023-05-08T20:19:31.101Z,44.85
2023-05-08T20:20:31.077Z,44.97
2023-05-08T20:21:31.085Z,45.25
2023-05-08T20:22:31.112Z,45.31
2023-05-08T20:23:31.046Z,45.70
2023-05-08T20:24:31.092Z,45.97
2023-05-08T20:25:31.044Z,46.00
2023-05-08T20:26:31.013Z,46.06
2023-05-08T20:27:31.034Z,46.18
2023-05-08T20:28:31.020Z,46.23
2023-05-08T20:29:30.989Z,46.34
2023-05-08T20:30:30.993Z,46.42
2023-05-08T20:31:31.018Z,46.66
2023-05-08T20:32:31.019Z,46.77
2023-05-08T20:33:30.921Z,46.81
2023-05-08T20:34:30.930Z,46.99
2023-05-08T20:35:30.994Z,47.04
2023-05-08T20:36:30.904Z,47.05
2023-05-08T20:37:30.880Z,47.12
2023-05-08T20:38:30.881Z,47.21
2023-05-08T20:39:30.857Z,47.31
2023-05-08T20:40:30.877Z,47.44
2023-05-08T20:41:30.904Z,47.54
2023-05-08T20:42:30.832Z,47.61
2023-05-08T20:43:30.813Z,47.64
2023-05-08T20:44:30.830Z,47.78
2023-05-08T20:45:30.871Z,47.89
2023-05-08T20:46:30.787Z,47.91
2023-05-08T20:47:30.832Z,48.02
2023-05-08T20:48:30.775Z,48.22
2023-05-08T20:49:30.758Z,48.39
2023-05-08T20:50:30.782Z,48.52
2023-05-08T20:51:30.744Z,48.72
2023-05-08T20:52:30.735Z,48.92
2023-05-08T20:53:30.727Z,48.99
2023-05-08T20:54:30.701Z,49.09
2023-05-08T20:55:30.720Z,49.25
2023-05-08T20:56:30.694Z,49.32
2023-05-08T20:57:30.675Z,49.42
2023-05-08T20:58:30.652Z,49.59
2023-05-08T20:59:30.632Z,49.82
2023-05-08T21:00:30.674Z,50.00
2023-05-08T21:01:30.680Z,50.06
2023-05-08T21:02:30.661Z,50.17
2023-05-08T21:03:30.645Z,50.25
2023-05-08T21:04:30.620Z,50.25
2023-05-08T21:05:30.576Z,50.23
2023-05-08T21:06:30.604Z,50.39
2023-05-08T21:07:30.560Z,50.56
2023-05-08T21:08:30.546Z,50.68
2023-05-08T21:09:30.613Z,50.79
2023-05-08T21:10:30.529Z,50.97
2023-05-08T21:11:30.529Z,51.03
2023-05-08T21:12:30.539Z,51.08
2023-05-08T21:13:30.500Z,51.15
2023-05-08T21:14:30.485Z,51.13
2023-05-08T21:15:30.515Z,51.21
2023-05-08T21:16:30.495Z,51.29
2023-05-08T21:17:30.506Z,51.33
2023-05-08T21:18:30.457Z,51.44
2023-05-08T21:19:30.442Z,51.60
2023-05-08T21:20:30.427Z,51.61
2023-05-08T21:21:30.433Z,51.69
2023-05-08T21:22:30.421Z,51.76
2023-05-08T21:23:30.404Z,51.80
2023-05-08T21:24:30.386Z,51.93
2023-05-08T21:25:30.379Z,51.99
2023-05-08T21:26:30.370Z,51.98
2023-05-08T21:27:30.355Z,52.00
2023-05-08T21:28:30.347Z,52.08
2023-05-08T21:29:30.335Z,52.18
2023-05-08T21:30:30.310Z,52.30
2023-05-08T21:31:30.354Z,52.41
2023-05-08T21:32:30.343Z,52.60
2023-05-08T21:33:30.273Z,52.70
2023-05-08T21:34:30.359Z,52.75
2023-05-08T21:35:30.308Z,52.85
2023-05-08T21:36:30.258Z,53.06
2023-05-08T21:37:30.286Z,53.26
2023-05-08T21:38:30.240Z,53.28
2023-05-08T21:39:30.210Z,53.26
2023-05-08T21:40:30.269Z,53.32
2023-05-08T21:41:30.252Z,53.33
2023-05-08T21:42:30.187Z,53.29
2023-05-08T21:43:30.188Z,53.36
2023-05-08T21:44:30.169Z,53.20
2023-05-08T21:45:30.164Z,53.23
2023-05-08T21:46:30.238Z,53.19
2023-05-08T21:47:30.135Z,53.35
2023-05-08T21:48:30.119Z,53.43
2023-05-08T21:49:30.123Z,53.53
2023-05-08T21:50:30.106Z,53.59
2023-05-08T21:51:30.102Z,53.54
2023-05-08T21:52:30.095Z,53.58
2023-05-08T21:53:30.071Z,53.59
2023-05-08T21:54:30.055Z,53.59
2023-05-08T21:55:32.153Z,53.39
2023-05-08T21:56:30.056Z,53.61
2023-05-08T21:57:30.035Z,53.49
2023-05-08T21:58:30.019Z,53.54
2023-05-08T21:59:30.018Z,53.51
2023-05-08T22:00:30.003Z,53.43
2023-05-08T22:01:30.055Z,53.42
2023-05-08T22:02:30.037Z,53.42
2023-05-08T22:03:30.063Z,53.52
2023-05-08T22:04:29.944Z,53.58
2023-05-08T22:05:30.038Z,53.73
2023-05-08T22:06:29.943Z,53.80
2023-05-08T22:07:29.911Z,53.90
2023-05-08T22:08:29.920Z,53.90
2023-05-08T22:09:29.919Z,53.92
2023-05-08T22:10:29.883Z,54.01
2023-05-08T22:11:29.918Z,54.18
2023-05-08T22:12:29.861Z,54.29
2023-05-08T22:13:29.852Z,54.40
2023-05-08T22:14:29.865Z,54.35
2023-05-08T22:15:30.886Z,54.46
2023-05-08T22:16:29.879Z,54.57
2023-05-08T22:17:29.945Z,54.67
2023-05-08T22:18:29.827Z,54.57
2023-05-08T22:19:29.788Z,54.46
2023-05-08T22:20:29.799Z,54.50
2023-05-08T22:21:29.788Z,54.47
2023-05-08T22:22:29.748Z,54.60
2023-05-08T22:23:29.766Z,54.70
2023-05-08T22:24:29.732Z,54.84
2023-05-08T22:25:29.729Z,54.76
2023-05-08T22:26:29.751Z,54.82
2023-05-08T22:27:29.720Z,54.88
2023-05-08T22:28:29.684Z,54.95
2023-05-08T22:29:29.672Z,54.94
2023-05-08T22:30:29.686Z,55.00
2023-05-08T22:31:29.715Z,55.08
2023-05-08T22:32:29.738Z,55.02
2023-05-08T22:33:29.657Z,54.90
2023-05-08T22:34:29.630Z,54.70
2023-05-08T22:35:29.608Z,54.79
2023-05-08T22:36:29.630Z,54.96
2023-05-08T22:37:29.599Z,55.08
2023-05-08T22:38:29.578Z,55.17
2023-05-08T22:39:29.614Z,55.36
2023-05-08T22:40:29.577Z,55.51
2023-05-08T22:41:29.560Z,55.64
2023-05-08T22:42:29.583Z,55.95
2023-05-08T22:43:29.533Z,55.99
2023-05-08T22:44:29.508Z,56.00
2023-05-08T22:45:29.528Z,56.14
2023-05-08T22:46:29.566Z,56.21
2023-05-08T22:47:29.516Z,56.17
2023-05-08T22:48:29.470Z,56.23
2023-05-08T22:49:29.511Z,56.17
2023-05-08T22:50:29.454Z,56.28
2023-05-08T22:51:29.444Z,56.23
2023-05-08T22:52:29.447Z,56.29
2023-05-08T22:53:29.449Z,56.26
2023-05-08T22:54:29.405Z,56.17
2023-05-08T22:55:29.393Z,55.75
2023-05-08T22:56:29.386Z,55.58
2023-05-08T22:57:29.387Z,55.51
2023-05-08T22:58:29.422Z,55.45
2023-05-08T22:59:29.351Z,55.63
2023-05-08T23:00:29.341Z,55.73
2023-05-08T23:01:29.387Z,55.85
2023-05-08T23:02:29.341Z,55.86
2023-05-08T23:03:29.316Z,55.73
2023-05-08T23:04:29.361Z,55.62
2023-05-08T23:05:29.280Z,55.54
2023-05-08T23:06:29.298Z,55.50
2023-05-08T23:07:29.283Z,55.52
2023-05-08T23:08:29.264Z,55.63
2023-05-08T23:09:29.244Z,55.95
2023-05-08T23:10:29.235Z,56.09
2023-05-08T23:11:29.251Z,56.26
2023-05-08T23:12:29.233Z,56.79
2023-05-08T23:13:29.236Z,57.52
2023-05-08T23:14:29.194Z,58.42
2023-05-08T23:15:29.175Z,59.12
2023-05-08T23:16:29.221Z,59.73
2023-05-08T23:17:29.193Z,60.21
2023-05-08T23:18:29.162Z,60.58
2023-05-08T23:19:29.138Z,61.09
2023-05-08T23:20:29.136Z,61.37
2023-05-08T23:21:29.113Z,61.59
2023-05-08T23:22:29.154Z,61.91
2023-05-08T23:23:29.083Z,62.27
2023-05-08T23:24:29.096Z,62.54
2023-05-08T23:25:29.074Z,62.72
2023-05-08T23:26:29.075Z,62.91
2023-05-08T23:27:29.086Z,63.03
2023-05-08T23:28:29.039Z,62.88
2023-05-08T23:29:29.030Z,62.72
2023-05-08T23:30:29.054Z,62.61
2023-05-08T23:31:29.042Z,62.39
2023-05-08T23:32:29.075Z,62.31
2023-05-08T23:33:28.976Z,62.27
2023-05-08T23:34:29.168Z,62.30
2023-05-08T23:35:28.972Z,62.27
2023-05-08T23:36:28.948Z,62.24
2023-05-08T23:37:29.008Z,62.17
2023-05-08T23:38:28.940Z,62.12
2023-05-08T23:39:28.936Z,61.94
2023-05-08T23:40:28.912Z,62.10
2023-05-08T23:41:28.891Z,62.09
2023-05-08T23:42:28.917Z,61.95
2023-05-08T23:43:28.886Z,61.91
2023-05-08T23:44:28.871Z,61.86
2023-05-08T23:45:28.861Z,61.77
2023-05-08T23:46:28.879Z,61.69
2023-05-08T23:47:28.898Z,61.80
2023-05-08T23:48:28.829Z,61.74
2023-05-08T23:49:28.808Z,61.63
2023-05-08T23:50:28.813Z,61.66
2023-05-08T23:51:28.795Z,61.69
2023-05-08T23:52:28.837Z,61.70
2023-05-08T23:53:28.779Z,61.62
2023-05-08T23:54:28.822Z,61.70
2023-05-08T23:55:28.754Z,61.77
2023-05-08T23:56:28.734Z,61.69
2023-05-08T23:57:28.797Z,61.88
2023-05-08T23:58:28.716Z,61.84
2023-05-08T23:59:28.746Z,61.90
